createdAt,value
2023-05-15T14:25:29.989Z,0.50
2023-05-15T14:26:29.913Z,0.50
2023-05-15T14:27:29.940Z,0.50
2023-05-15T14:28:29.936Z,0.50
2023-05-15T14:29:29.930Z,0.50
2023-05-15T14:30:29.888Z,0.22
2023-05-15T14:31:29.928Z,0.16
2023-05-15T14:32:29.953Z,0.16
2023-05-15T14:33:29.879Z,0.16
2023-05-15T14:34:29.870Z,0.16
2023-05-15T14:35:29.875Z,0.16
2023-05-15T14:36:29.857Z,0.16
2023-05-15T14:37:29.875Z,0.16
2023-05-15T14:38:29.860Z,0.16
2023-05-15T14:39:29.860Z,0.16
2023-05-15T14:40:29.841Z,0.16
2023-05-15T14:41:29.858Z,0.16
2023-05-15T14:42:29.824Z,0.16
2023-05-15T14:43:29.826Z,0.16
2023-05-15T14:44:29.807Z,0.16
2023-05-15T14:45:29.804Z,0.16
2023-05-15T14:46:29.843Z,0.16
2023-05-15T14:47:29.835Z,0.16
2023-05-15T14:48:29.753Z,0.16
2023-05-15T14:49:29.764Z,0.16
2023-05-15T14:50:29.757Z,0.16
2023-05-15T14:51:29.777Z,0.16
2023-05-15T14:52:29.769Z,0.16
2023-05-15T14:53:29.761Z,0.16
2023-05-15T14:54:29.731Z,0.16
2023-05-15T14:55:29.725Z,0.16
2023-05-15T14:56:29.745Z,0.16
2023-05-15T14:57:29.723Z,0.16
2023-05-15T14:58:29.805Z,0.16
2023-05-15T14:59:29.845Z,0.16
2023-05-15T15:00:29.899Z,0.16
2023-05-15T15:01:30.037Z,0.16
2023-05-15T15:02:30.106Z,0.16
2023-05-15T15:03:31.893Z,0.16
2023-05-15T15:04:30.106Z,0.16
2023-05-15T15:05:30.049Z,0.16
2023-05-15T15:06:30.064Z,0.16
2023-05-15T15:07:30.065Z,0.16
2023-05-15T15:08:30.050Z,0.16
2023-05-15T15:09:30.098Z,0.16
2023-05-15T15:10:30.024Z,0.16
2023-05-15T15:11:30.030Z,0.16
2023-05-15T15:12:30.032Z,0.16
2023-05-15T15:13:30.036Z,0.16
2023-05-15T15:14:30.313Z,0.16
2023-05-15T15:15:30.043Z,0.17
2023-05-15T15:16:30.025Z,0.19
2023-05-15T15:17:29.989Z,0.22
2023-05-15T15:18:30.069Z,0.27
2023-05-15T15:19:30.066Z,0.31
2023-05-15T15:20:29.961Z,0.37
2023-05-15T15:21:30.010Z,0.44
2023-05-15T15:22:29.971Z,0.50
2023-05-15T15:23:29.969Z,0.50
2023-05-15T15:24:29.966Z,0.51
2023-05-15T15:25:31.456Z,0.51
2023-05-15T15:26:29.945Z,0.50
2023-05-15T15:27:29.930Z,0.50
2023-05-15T15:28:29.945Z,0.50
2023-05-15T15:29:29.921Z,0.50
2023-05-15T15:30:29.931Z,0.50
2023-05-15T15:31:29.959Z,0.50
2023-05-15T15:32:29.934Z,0.50
2023-05-15T15:33:29.911Z,0.50
2023-05-15T15:34:29.916Z,0.50
2023-05-15T15:35:29.901Z,0.50
2023-05-15T15:36:29.900Z,0.51
2023-05-15T15:37:29.863Z,0.52
2023-05-15T15:38:29.869Z,0.50
2023-05-15T15:39:29.854Z,0.50
2023-05-15T15:40:30.027Z,0.50
2023-05-15T15:41:29.848Z,0.51
2023-05-15T15:42:29.833Z,0.50
2023-05-15T15:43:29.851Z,0.50
2023-05-15T15:44:29.818Z,0.51
2023-05-15T15:45:29.894Z,0.51
2023-05-15T15:46:29.819Z,0.52
2023-05-15T15:47:29.845Z,0.50
2023-05-15T15:48:29.827Z,0.50
2023-05-15T15:49:29.803Z,0.50
2023-05-15T15:50:29.798Z,0.50
2023-05-15T15:51:29.792Z,0.51
2023-05-15T15:52:29.770Z,0.52
2023-05-15T15:53:29.798Z,0.50
2023-05-15T15:54:29.786Z,0.51
2023-05-15T15:55:29.742Z,0.51
2023-05-15T15:56:29.759Z,0.51
2023-05-15T15:57:29.777Z,0.50
2023-05-15T15:58:29.740Z,0.50
2023-05-15T15:59:29.748Z,0.51
2023-05-15T16:00:29.739Z,0.50
2023-05-15T16:01:29.763Z,0.51
2023-05-15T16:02:29.776Z,0.51
2023-05-15T16:03:29.852Z,0.50
2023-05-15T16:04:29.715Z,0.50
2023-05-15T16:05:29.714Z,0.51
2023-05-15T16:06:29.697Z,0.50
2023-05-15T16:07:29.707Z,0.51
2023-05-15T16:08:29.683Z,0.50
2023-05-15T16:09:29.680Z,0.51
2023-05-15T16:10:29.810Z,0.52
2023-05-15T16:11:29.659Z,0.52
2023-05-15T16:12:29.653Z,0.52
2023-05-15T16:13:29.669Z,0.55
2023-05-15T16:14:29.652Z,0.61
2023-05-15T16:15:29.619Z,0.57
2023-05-15T16:16:29.640Z,0.54
2023-05-15T16:17:29.677Z,0.53
2023-05-15T16:18:29.687Z,0.52
2023-05-15T16:19:29.628Z,0.53
2023-05-15T16:20:29.741Z,0.52
2023-05-15T16:21:29.612Z,0.51
2023-05-15T16:22:29.594Z,0.51
2023-05-15T16:23:29.560Z,0.52
2023-05-15T16:24:29.586Z,0.51
2023-05-15T16:25:29.593Z,0.52
2023-05-15T16:26:29.563Z,0.51
2023-05-15T16:27:29.563Z,0.51
2023-05-15T16:28:29.540Z,0.50
2023-05-15T16:29:29.579Z,0.51
2023-05-15T16:30:44.187Z,0.50
2023-05-15T16:31:30.595Z,0.50
2023-05-15T16:32:29.560Z,0.47
2023-05-15T16:33:29.524Z,0.42
2023-05-15T16:34:29.502Z,0.43
2023-05-15T16:35:29.494Z,0.43
2023-05-15T16:36:29.515Z,0.51
2023-05-15T16:37:29.481Z,0.52
2023-05-15T16:38:29.498Z,0.51
2023-05-15T16:39:29.495Z,0.52
2023-05-15T16:40:29.448Z,0.54
2023-05-15T16:41:29.477Z,0.53
2023-05-15T16:42:29.481Z,0.55
2023-05-15T16:43:29.463Z,0.55
2023-05-15T16:44:29.449Z,0.54
2023-05-15T16:45:29.483Z,0.54
2023-05-15T16:46:29.523Z,0.52
2023-05-15T16:47:29.596Z,0.53
2023-05-15T16:48:29.565Z,0.53
2023-05-15T16:49:29.595Z,0.54
2023-05-15T16:50:29.622Z,0.56
2023-05-15T16:51:29.665Z,0.57
2023-05-15T16:52:29.694Z,0.58
2023-05-15T16:53:29.797Z,0.58
2023-05-15T16:54:29.761Z,0.61
2023-05-15T16:55:29.794Z,0.61
2023-05-15T16:56:29.846Z,0.60
2023-05-15T16:57:29.872Z,0.61
2023-05-15T16:58:29.887Z,0.64
2023-05-15T16:59:29.976Z,0.67
2023-05-15T17:00:29.995Z,0.66
2023-05-15T17:01:30.072Z,0.66
2023-05-15T17:02:30.141Z,0.69
2023-05-15T17:03:30.207Z,0.69
2023-05-15T17:04:32.725Z,0.73
2023-05-15T17:05:30.127Z,0.76
2023-05-15T17:06:30.144Z,0.74
2023-05-15T17:07:30.128Z,0.77
2023-05-15T17:08:30.060Z,0.77
2023-05-15T17:09:30.063Z,0.77
2023-05-15T17:10:30.066Z,0.74
2023-05-15T17:11:30.075Z,0.61
2023-05-15T17:12:30.087Z,0.59
2023-05-15T17:13:30.050Z,0.64
2023-05-15T17:14:30.024Z,0.65
2023-05-15T17:15:30.081Z,0.65
2023-05-15T17:16:30.164Z,0.60
2023-05-15T17:17:30.029Z,0.63
2023-05-15T17:18:30.068Z,0.60
2023-05-15T17:19:30.048Z,0.57
2023-05-15T17:20:30.061Z,0.52
2023-05-15T17:21:29.975Z,0.50
2023-05-15T17:22:30.010Z,0.51
2023-05-15T17:23:30.010Z,0.51
2023-05-15T17:24:38.808Z,0.51
2023-05-15T17:25:30.986Z,0.51
2023-05-15T17:26:29.963Z,0.48
2023-05-15T17:27:29.951Z,0.45
2023-05-15T17:28:29.964Z,0.43
2023-05-15T17:29:29.919Z,0.39
2023-05-15T17:30:30.017Z,0.46
2023-05-15T17:31:29.932Z,0.50
2023-05-15T17:32:29.948Z,0.50
2023-05-15T17:33:29.992Z,0.51
2023-05-15T17:34:29.901Z,0.50
2023-05-15T17:35:32.117Z,0.51
2023-05-15T17:36:29.925Z,0.50
2023-05-15T17:37:29.906Z,0.50
2023-05-15T17:38:29.888Z,0.50
2023-05-15T17:39:29.865Z,0.50
2023-05-15T17:40:29.908Z,0.50
2023-05-15T17:41:29.861Z,0.50
2023-05-15T17:42:29.874Z,0.50
2023-05-15T17:43:29.876Z,0.50
2023-05-15T17:44:29.877Z,0.50
2023-05-15T17:45:29.827Z,0.49
2023-05-15T17:46:29.846Z,0.50
2023-05-15T17:47:29.883Z,0.51
2023-05-15T17:48:29.843Z,0.50
2023-05-15T17:49:29.818Z,0.50
2023-05-15T17:50:29.838Z,0.50
2023-05-15T17:51:29.829Z,0.50
2023-05-15T17:52:29.812Z,0.51
2023-05-15T17:53:29.808Z,0.50
2023-05-15T17:54:29.766Z,0.50
2023-05-15T17:55:29.794Z,0.51
2023-05-15T17:56:29.765Z,0.51
2023-05-15T17:57:29.772Z,0.50
2023-05-15T17:58:29.780Z,0.51
2023-05-15T17:59:29.789Z,0.51
2023-05-15T18:00:29.776Z,0.50
2023-05-15T18:01:29.772Z,0.50
2023-05-15T18:02:29.749Z,0.51
2023-05-15T18:03:29.823Z,0.51
2023-05-15T18:04:29.762Z,0.52
2023-05-15T18:05:29.720Z,0.52
2023-05-15T18:06:29.720Z,0.52
2023-05-15T18:07:29.713Z,0.51
2023-05-15T18:08:29.697Z,0.51
2023-05-15T18:09:29.756Z,0.50
2023-05-15T18:10:29.718Z,0.52
2023-05-15T18:11:29.714Z,0.51
2023-05-15T18:12:29.688Z,0.51
2023-05-15T18:13:29.669Z,0.51
2023-05-15T18:14:29.644Z,0.50
2023-05-15T18:15:29.667Z,0.53
2023-05-15T18:16:29.755Z,0.53
2023-05-15T18:17:29.760Z,0.51
2023-05-15T18:18:29.835Z,0.50
2023-05-15T18:19:29.826Z,0.51
2023-05-15T18:20:29.878Z,0.51
2023-05-15T18:21:29.941Z,0.51
2023-05-15T18:22:29.954Z,0.51
2023-05-15T18:23:29.967Z,0.51
2023-05-15T18:24:29.984Z,0.51
2023-05-15T18:25:30.018Z,0.53
2023-05-15T18:26:30.000Z,0.53
2023-05-15T18:27:30.007Z,0.53
2023-05-15T18:28:30.001Z,0.54
2023-05-15T18:29:29.982Z,0.56
2023-05-15T18:30:29.996Z,0.56
2023-05-15T18:31:30.110Z,0.58
2023-05-15T18:32:30.020Z,0.59
2023-05-15T18:33:30.019Z,0.60
2023-05-15T18:34:30.018Z,0.62
2023-05-15T18:35:30.007Z,0.65
2023-05-15T18:36:30.004Z,0.65
2023-05-15T18:37:30.017Z,0.66
2023-05-15T18:38:29.991Z,0.69
2023-05-15T18:39:30.012Z,0.71
2023-05-15T18:40:30.031Z,0.73
2023-05-15T18:41:29.969Z,0.74
2023-05-15T18:42:29.979Z,0.74
2023-05-15T18:43:30.017Z,0.76
2023-05-15T18:44:29.994Z,0.77
2023-05-15T18:45:30.004Z,0.76
2023-05-15T18:46:30.003Z,0.80
2023-05-15T18:47:30.032Z,0.78
2023-05-15T18:48:29.987Z,0.80
2023-05-15T18:49:29.992Z,0.80
2023-05-15T18:50:30.197Z,0.85
2023-05-15T18:51:30.000Z,0.83
2023-05-15T18:52:30.008Z,0.89
2023-05-15T18:53:30.000Z,0.87
2023-05-15T18:54:30.004Z,0.88
2023-05-15T18:55:30.011Z,0.90
2023-05-15T18:56:29.965Z,0.91
2023-05-15T18:57:30.003Z,0.90
2023-05-15T18:58:29.997Z,0.89
2023-05-15T18:59:29.987Z,0.90
2023-05-15T19:01:30.038Z,0.91
2023-05-15T19:02:30.015Z,0.90
2023-05-15T19:03:30.049Z,0.90
2023-05-15T19:04:29.981Z,0.92
2023-05-15T19:05:29.955Z,0.90
2023-05-15T19:06:29.977Z,0.91
2023-05-15T19:07:29.960Z,0.90
2023-05-15T19:08:29.962Z,0.92
2023-05-15T19:09:29.960Z,0.94
2023-05-15T19:10:29.960Z,0.92
2023-05-15T19:11:29.932Z,0.94
2023-05-15T19:12:29.929Z,0.94
2023-05-15T19:13:29.916Z,0.93
2023-05-15T19:14:29.947Z,0.95
2023-05-15T19:15:29.922Z,0.96
2023-05-15T19:16:29.947Z,0.96
2023-05-15T19:17:30.025Z,0.97
2023-05-15T19:18:29.935Z,0.98
2023-05-15T19:19:29.894Z,1.00
2023-05-15T19:20:29.902Z,1.00
2023-05-15T19:21:29.867Z,1.02
2023-05-15T19:22:29.863Z,1.01
2023-05-15T19:23:29.858Z,1.06
2023-05-15T19:24:30.870Z,1.03
2023-05-15T19:25:29.872Z,1.03
2023-05-15T19:26:29.918Z,1.03
2023-05-15T19:27:29.857Z,1.03
2023-05-15T19:28:29.803Z,1.04
2023-05-15T19:29:29.850Z,1.05
2023-05-15T19:30:29.804Z,1.02
2023-05-15T19:31:31.690Z,1.05
2023-05-15T19:32:29.909Z,1.05
2023-05-15T19:33:29.792Z,1.06
2023-05-15T19:34:29.791Z,1.05
2023-05-15T19:35:29.775Z,1.06
2023-05-15T19:36:29.755Z,1.09
2023-05-15T19:37:29.762Z,1.09
2023-05-15T19:38:29.808Z,1.10
2023-05-15T19:39:29.836Z,1.11
2023-05-15T19:40:29.843Z,1.13
2023-05-15T19:41:29.866Z,1.11
2023-05-15T19:42:29.851Z,1.12
2023-05-15T19:43:29.877Z,1.12
2023-05-15T19:44:29.908Z,1.14
2023-05-15T19:45:29.949Z,1.15
2023-05-15T19:46:30.003Z,1.12
2023-05-15T19:47:29.988Z,1.12
2023-05-15T19:48:30.019Z,1.13
2023-05-15T19:49:30.015Z,1.13
2023-05-15T19:50:31.466Z,1.14
2023-05-15T19:51:30.043Z,1.15
2023-05-15T19:52:30.045Z,1.12
2023-05-15T19:53:30.027Z,1.11
2023-05-15T19:54:30.055Z,1.14
2023-05-15T19:55:30.035Z,1.12
2023-05-15T19:56:30.022Z,1.15
2023-05-15T19:57:30.713Z,1.11
2023-05-15T19:58:30.005Z,1.10
2023-05-15T19:59:30.062Z,1.12
2023-05-15T20:00:30.019Z,1.09
2023-05-15T20:01:30.044Z,1.11
2023-05-15T20:02:30.086Z,1.11
2023-05-15T20:03:30.038Z,1.12
2023-05-15T20:04:29.953Z,1.11
2023-05-15T20:05:29.987Z,1.11
2023-05-15T20:06:29.933Z,1.08
2023-05-15T20:07:29.933Z,1.07
2023-05-15T20:08:29.985Z,1.05
2023-05-15T20:09:29.903Z,1.08
2023-05-15T20:10:29.936Z,1.06
2023-05-15T20:11:29.923Z,1.05
2023-05-15T20:12:29.928Z,1.05
2023-05-15T20:13:29.908Z,1.04
2023-05-15T20:14:29.899Z,1.02
2023-05-15T20:15:29.919Z,1.03
2023-05-15T20:16:29.903Z,1.02
2023-05-15T20:17:29.936Z,1.01
2023-05-15T20:18:32.220Z,0.99
2023-05-15T20:19:30.425Z,0.99
2023-05-15T20:20:29.865Z,1.00
2023-05-15T20:21:29.852Z,0.99
2023-05-15T20:22:29.852Z,0.96
2023-05-15T20:23:29.845Z,0.97
2023-05-15T20:24:29.831Z,0.97
2023-05-15T20:25:30.108Z,0.96
2023-05-15T20:26:29.803Z,0.96
2023-05-15T20:27:29.796Z,0.93
2023-05-15T20:28:29.794Z,0.96
2023-05-15T20:29:29.793Z,0.95
2023-05-15T20:30:29.880Z,0.94
2023-05-15T20:31:29.806Z,0.92
2023-05-15T20:32:29.887Z,0.93
2023-05-15T20:33:29.911Z,0.93
2023-05-15T20:34:29.779Z,0.90
2023-05-15T20:35:29.788Z,0.91
2023-05-15T20:36:29.764Z,0.89
2023-05-15T20:37:29.721Z,0.87
2023-05-15T20:38:29.723Z,0.87
2023-05-15T20:39:29.730Z,0.87
2023-05-15T20:40:29.707Z,0.88
2023-05-15T20:41:29.737Z,0.86
2023-05-15T20:42:29.719Z,0.86
2023-05-15T20:43:29.712Z,0.85
2023-05-15T20:44:29.695Z,0.88
2023-05-15T20:45:29.760Z,0.87
2023-05-15T20:46:30.385Z,0.87
2023-05-15T20:47:29.697Z,0.87
2023-05-15T20:48:29.660Z,0.89
2023-05-15T20:49:29.663Z,0.89
2023-05-15T20:50:29.742Z,0.88
2023-05-15T20:51:29.792Z,0.88
2023-05-15T20:52:29.848Z,0.87
2023-05-15T20:53:29.878Z,0.82
2023-05-15T20:54:29.908Z,0.81
2023-05-15T20:55:29.974Z,0.83
2023-05-15T20:56:30.023Z,0.84
2023-05-15T20:57:30.082Z,0.80
2023-05-15T20:58:30.116Z,0.81
2023-05-15T20:59:30.185Z,0.79
2023-05-15T21:00:30.205Z,0.81
2023-05-15T21:01:30.298Z,0.83
2023-05-15T21:02:30.351Z,0.82
2023-05-15T21:03:30.451Z,0.83
2023-05-15T21:04:30.440Z,0.84
2023-05-15T21:05:30.496Z,0.86
2023-05-15T21:06:30.512Z,0.85
2023-05-15T21:07:30.563Z,0.87
2023-05-15T21:08:31.249Z,0.86
2023-05-15T21:09:30.637Z,0.86
2023-05-15T21:10:30.684Z,0.86
2023-05-15T21:11:30.743Z,0.91
2023-05-15T21:12:30.789Z,0.88
2023-05-15T21:13:30.848Z,0.91
2023-05-15T21:14:30.936Z,0.90
2023-05-15T21:15:30.979Z,0.92
2023-05-15T21:16:31.102Z,0.93
2023-05-15T21:17:31.091Z,0.93
2023-05-15T21:18:31.129Z,0.93
2023-05-15T21:19:31.185Z,0.93
2023-05-15T21:20:32.835Z,0.94
2023-05-15T21:21:31.207Z,0.93
2023-05-15T21:22:31.211Z,0.95
2023-05-15T21:23:31.209Z,0.95
2023-05-15T21:24:31.201Z,0.96
2023-05-15T21:25:31.180Z,0.95
2023-05-15T21:26:31.184Z,0.92
2023-05-15T21:27:31.152Z,0.95
2023-05-15T21:28:31.182Z,0.97
2023-05-15T21:29:31.166Z,0.94
2023-05-15T21:30:31.188Z,0.95
2023-05-15T21:31:31.190Z,0.92
2023-05-15T21:32:31.191Z,0.91
2023-05-15T21:33:31.114Z,0.90
2023-05-15T21:34:31.121Z,0.91
2023-05-15T21:35:31.112Z,0.92
2023-05-15T21:36:31.107Z,0.88
2023-05-15T21:37:31.157Z,0.88
2023-05-15T21:38:31.120Z,0.91
2023-05-15T21:39:31.106Z,0.89
2023-05-15T21:40:31.088Z,0.91
2023-05-15T21:41:31.094Z,0.90
2023-05-15T21:42:31.098Z,0.91
2023-05-15T21:43:31.091Z,0.91
2023-05-15T21:44:31.055Z,0.90
2023-05-15T21:45:31.078Z,0.91
2023-05-15T21:46:31.079Z,0.92
2023-05-15T21:47:31.064Z,0.92
2023-05-15T21:48:31.048Z,0.93
2023-05-15T21:49:31.041Z,0.92
2023-05-15T21:50:31.021Z,0.94
2023-05-15T21:51:31.032Z,0.94
2023-05-15T21:52:31.008Z,0.95
2023-05-15T21:53:31.006Z,0.94
2023-05-15T21:54:31.007Z,0.96
2023-05-15T21:55:30.996Z,0.96
2023-05-15T21:56:30.986Z,0.98
2023-05-15T21:57:31.010Z,0.97
2023-05-15T21:58:31.023Z,1.01
2023-05-15T21:59:31.021Z,1.02
2023-05-15T22:00:31.071Z,1.03
2023-05-15T22:01:31.174Z,1.03
2023-05-15T22:02:31.254Z,1.03
2023-05-15T22:03:31.417Z,1.05
2023-05-15T22:04:31.299Z,1.04
2023-05-15T22:05:31.367Z,1.05
2023-05-15T22:06:31.416Z,1.05
2023-05-15T22:07:31.436Z,1.05
2023-05-15T22:08:31.474Z,1.06
2023-05-15T22:09:31.519Z,1.04
2023-05-15T22:10:31.559Z,1.04
2023-05-15T22:11:31.626Z,1.05
2023-05-15T22:12:31.671Z,1.06
2023-05-15T22:13:31.671Z,1.06
2023-05-15T22:14:31.697Z,1.06
2023-05-15T22:15:31.777Z,1.09
2023-05-15T22:16:31.859Z,1.09
2023-05-15T22:17:31.874Z,1.07
2023-05-15T22:18:31.984Z,1.04
2023-05-15T22:19:33.204Z,1.03
2023-05-15T22:20:32.010Z,1.04
2023-05-15T22:21:32.072Z,1.03
2023-05-15T22:22:32.131Z,1.03
2023-05-15T22:23:32.199Z,1.02
2023-05-15T22:24:32.264Z,0.98
2023-05-15T22:25:32.409Z,0.98
2023-05-15T22:26:32.347Z,0.98
2023-05-15T22:27:32.401Z,0.98
2023-05-15T22:28:32.403Z,0.95
2023-05-15T22:29:32.442Z,0.95
2023-05-15T22:30:32.457Z,0.96
2023-05-15T22:31:32.521Z,0.93
2023-05-15T22:32:32.487Z,0.91
2023-05-15T22:33:32.455Z,0.92
2023-05-15T22:34:32.455Z,0.92
2023-05-15T22:35:32.486Z,0.90
2023-05-15T22:36:32.522Z,0.90
2023-05-15T22:37:32.484Z,0.89
2023-05-15T22:38:32.503Z,0.91
2023-05-15T22:39:32.494Z,0.92
2023-05-15T22:40:32.488Z,0.90
2023-05-15T22:41:32.490Z,0.90
2023-05-15T22:42:32.473Z,0.89
2023-05-15T22:43:32.482Z,0.89
2023-05-15T22:44:32.499Z,0.88
2023-05-15T22:45:32.533Z,0.89
2023-05-15T22:46:32.526Z,0.90
2023-05-15T22:47:32.486Z,0.91
2023-05-15T22:48:32.480Z,0.91
2023-05-15T22:49:32.528Z,0.93
2023-05-15T22:50:32.480Z,0.92
2023-05-15T22:51:32.454Z,0.95
2023-05-15T22:52:32.477Z,0.96
2023-05-15T22:53:32.471Z,0.95
2023-05-15T22:54:32.497Z,0.99
2023-05-15T22:55:32.498Z,0.97
2023-05-15T22:56:32.467Z,1.00
2023-05-15T22:57:32.476Z,1.00
2023-05-15T22:58:32.486Z,1.01
2023-05-15T22:59:32.467Z,1.01
2023-05-15T23:00:32.454Z,1.01
2023-05-15T23:01:32.457Z,1.01
2023-05-15T23:02:32.547Z,1.00
2023-05-15T23:03:32.478Z,1.00
2023-05-15T23:04:32.427Z,1.01
2023-05-15T23:05:32.418Z,0.98
2023-05-15T23:06:32.392Z,0.99
2023-05-15T23:07:32.390Z,1.01
2023-05-15T23:08:32.426Z,0.98
2023-05-15T23:09:32.394Z,0.98
2023-05-15T23:10:32.389Z,0.97
2023-05-15T23:11:32.384Z,0.96
2023-05-15T23:12:32.375Z,1.00
2023-05-15T23:13:32.375Z,0.99
2023-05-15T23:14:32.369Z,0.95
2023-05-15T23:15:32.368Z,0.96
2023-05-15T23:16:32.341Z,1.00
2023-05-15T23:17:32.377Z,0.97
2023-05-15T23:18:32.331Z,0.99
2023-05-15T23:19:32.322Z,0.97
2023-05-15T23:20:32.352Z,0.99
2023-05-15T23:21:32.329Z,0.98
2023-05-15T23:22:32.315Z,1.01
2023-05-15T23:23:32.314Z,1.00
2023-05-15T23:24:32.302Z,1.00
2023-05-15T23:25:32.317Z,0.99
2023-05-15T23:26:32.330Z,1.03
2023-05-15T23:27:32.334Z,1.02
2023-05-15T23:28:32.330Z,1.02
2023-05-15T23:29:32.367Z,1.04
2023-05-15T23:30:32.351Z,1.02
2023-05-15T23:31:32.397Z,1.05
2023-05-15T23:32:32.455Z,1.05
2023-05-15T23:33:32.385Z,1.05
2023-05-15T23:34:32.412Z,1.05
2023-05-15T23:35:32.458Z,1.06
2023-05-15T23:36:32.446Z,1.10
2023-05-15T23:37:32.469Z,1.09
2023-05-15T23:38:32.449Z,1.08
2023-05-15T23:39:32.485Z,1.05
2023-05-15T23:40:32.535Z,1.10
2023-05-15T23:41:32.525Z,1.11
2023-05-15T23:42:32.543Z,1.07
2023-05-15T23:43:32.562Z,1.10
2023-05-15T23:44:32.583Z,1.09
2023-05-15T23:45:32.612Z,1.10
2023-05-15T23:46:32.682Z,1.11
2023-05-15T23:47:32.669Z,1.09
2023-05-15T23:48:32.607Z,1.09
2023-05-15T23:49:32.619Z,1.12
2023-05-15T23:50:32.644Z,1.12
2023-05-15T23:51:32.649Z,1.08
2023-05-15T23:52:32.681Z,1.11
2023-05-15T23:53:32.688Z,1.08
2023-05-15T23:54:32.692Z,1.11
2023-05-15T23:55:32.732Z,1.06
2023-05-15T23:56:32.717Z,1.07
2023-05-15T23:57:34.350Z,1.07
2023-05-15T23:58:32.727Z,1.01
2023-05-15T23:59:32.716Z,1.01
